sensor_id;sensor_type;location;lat;lon;timestamp;P1;durP1;ratioP1;P2;durP2;ratioP2
39858;SDS011;25528;47.810;12.960;2022-08-19T00:01:36;10.05;;;9.25;;
39858;SDS011;25528;47.810;12.960;2022-08-19T00:04:04;9.65;;;8.85;;
39858;SDS011;25528;47.810;12.960;2022-08-19T00:06:32;10.07;;;9.18;;
39858;SDS011;25528;47.810;12.960;2022-08-19T00:08:58;10.30;;;9.40;;
39858;SDS011;25528;47.810;12.960;2022-08-19T00:11:27;9.35;;;8.60;;
39858;SDS011;25528;47.810;12.960;2022-08-19T00:13:56;10.77;;;9.95;;
39858;SDS011;25528;47.810;12.960;2022-08-19T00:16:22;10.00;;;9.20;;
39858;SDS011;25528;47.810;12.960;2022-08-19T00:18:49;10.15;;;9.20;;
39858;SDS011;25528;47.810;12.960;2022-08-19T00:21:15;10.70;;;9.77;;
39858;SDS011;25528;47.810;12.960;2022-08-19T00:23:41;10.35;;;9.55;;
39858;SDS011;25528;47.810;12.960;2022-08-19T00:26:08;10.52;;;9.73;;
39858;SDS011;25528;47.810;12.960;2022-08-19T00:28:34;10.02;;;9.23;;
39858;SDS011;25528;47.810;12.960;2022-08-19T00:31:01;9.90;;;9.10;;
39858;SDS011;25528;47.810;12.960;2022-08-19T00:33:28;10.45;;;9.55;;
39858;SDS011;25528;47.810;12.960;2022-08-19T00:35:57;10.77;;;9.80;;
39858;SDS011;25528;47.810;12.960;2022-08-19T00:38:24;10.75;;;9.85;;
39858;SDS011;25528;47.810;12.960;2022-08-19T00:40:49;10.02;;;9.13;;
39858;SDS011;25528;47.810;12.960;2022-08-19T00:43:18;10.50;;;9.53;;
39858;SDS011;25528;47.810;12.960;2022-08-19T00:45:45;10.20;;;9.40;;
39858;SDS011;25528;47.810;12.960;2022-08-19T00:48:10;10.20;;;9.30;;
39858;SDS011;25528;47.810;12.960;2022-08-19T00:50:36;9.88;;;9.18;;
39858;SDS011;25528;47.810;12.960;2022-08-19T00:53:05;9.75;;;8.95;;
39858;SDS011;25528;47.810;12.960;2022-08-19T00:55:32;9.75;;;8.95;;
39858;SDS011;25528;47.810;12.960;2022-08-19T00:58:02;10.40;;;9.60;;
39858;SDS011;25528;47.810;12.960;2022-08-19T01:00:32;10.17;;;9.37;;
39858;SDS011;25528;47.810;12.960;2022-08-19T01:03:05;10.40;;;9.50;;
39858;SDS011;25528;47.810;12.960;2022-08-19T01:05:33;10.60;;;9.70;;
39858;SDS011;25528;47.810;12.960;2022-08-19T01:08:00;9.90;;;9.20;;
39858;SDS011;25528;47.810;12.960;2022-08-19T01:10:30;9.95;;;9.15;;
39858;SDS011;25528;47.810;12.960;2022-08-19T01:12:59;10.68;;;9.82;;
39858;SDS011;25528;47.810;12.960;2022-08-19T01:15:28;10.18;;;9.38;;
39858;SDS011;25528;47.810;12.960;2022-08-19T01:17:58;10.82;;;9.93;;
39858;SDS011;25528;47.810;12.960;2022-08-19T01:20:25;10.77;;;9.88;;
39858;SDS011;25528;47.810;12.960;2022-08-19T01:22:53;10.50;;;9.60;;
39858;SDS011;25528;47.810;12.960;2022-08-19T01:25:22;10.50;;;9.70;;
39858;SDS011;25528;47.810;12.960;2022-08-19T01:27:53;10.40;;;9.50;;
39858;SDS011;25528;47.810;12.960;2022-08-19T01:30:24;10.40;;;9.60;;
39858;SDS011;25528;47.810;12.960;2022-08-19T01:32:53;10.63;;;9.73;;
39858;SDS011;25528;47.810;12.960;2022-08-19T01:35:20;10.90;;;10.10;;
39858;SDS011;25528;47.810;12.960;2022-08-19T01:37:55;10.80;;;10.00;;
39858;SDS011;25528;47.810;12.960;2022-08-19T01:40:28;10.70;;;9.90;;
39858;SDS011;25528;47.810;12.960;2022-08-19T01:42:56;10.73;;;9.93;;
39858;SDS011;25528;47.810;12.960;2022-08-19T01:45:23;10.57;;;9.85;;
39858;SDS011;25528;47.810;12.960;2022-08-19T01:47:49;10.40;;;9.60;;
39858;SDS011;25528;47.810;12.960;2022-08-19T01:50:16;10.93;;;10.02;;
39858;SDS011;25528;47.810;12.960;2022-08-19T01:52:42;10.47;;;9.67;;
39858;SDS011;25528;47.810;12.960;2022-08-19T01:55:12;10.70;;;9.88;;
39858;SDS011;25528;47.810;12.960;2022-08-19T01:57:40;10.10;;;9.30;;
39858;SDS011;25528;47.810;12.960;2022-08-19T02:00:10;10.23;;;9.43;;
39858;SDS011;25528;47.810;12.960;2022-08-19T02:02:39;10.70;;;9.90;;
39858;SDS011;25528;47.810;12.960;2022-08-19T02:05:04;10.57;;;9.77;;
39858;SDS011;25528;47.810;12.960;2022-08-19T02:07:32;10.50;;;9.63;;
39858;SDS011;25528;47.810;12.960;2022-08-19T02:09:57;10.57;;;9.75;;
39858;SDS011;25528;47.810;12.960;2022-08-19T02:12:23;9.70;;;9.00;;
39858;SDS011;25528;47.810;12.960;2022-08-19T02:14:49;10.15;;;9.35;;
39858;SDS011;25528;47.810;12.960;2022-08-19T02:17:14;10.77;;;9.97;;
39858;SDS011;25528;47.810;12.960;2022-08-19T02:19:40;9.97;;;9.20;;
39858;SDS011;25528;47.810;12.960;2022-08-19T02:22:06;9.60;;;8.90;;
39858;SDS011;25528;47.810;12.960;2022-08-19T02:24:31;10.67;;;9.80;;
39858;SDS011;25528;47.810;12.960;2022-08-19T02:26:57;10.90;;;10.10;;
39858;SDS011;25528;47.810;12.960;2022-08-19T02:29:23;10.30;;;9.50;;
39858;SDS011;25528;47.810;12.960;2022-08-19T02:31:49;9.75;;;9.05;;
39858;SDS011;25528;47.810;12.960;2022-08-19T02:34:15;10.35;;;9.63;;
39858;SDS011;25528;47.810;12.960;2022-08-19T02:36:41;10.98;;;10.18;;
39858;SDS011;25528;47.810;12.960;2022-08-19T02:39:07;9.80;;;9.00;;
39858;SDS011;25528;47.810;12.960;2022-08-19T02:41:33;9.63;;;8.90;;
39858;SDS011;25528;47.810;12.960;2022-08-19T02:43:59;9.50;;;8.80;;
39858;SDS011;25528;47.810;12.960;2022-08-19T02:46:27;10.70;;;9.90;;
39858;SDS011;25528;47.810;12.960;2022-08-19T02:48:56;10.43;;;9.63;;
39858;SDS011;25528;47.810;12.960;2022-08-19T02:51:25;10.00;;;9.20;;
39858;SDS011;25528;47.810;12.960;2022-08-19T02:53:53;10.68;;;9.80;;
39858;SDS011;25528;47.810;12.960;2022-08-19T02:56:19;10.32;;;9.52;;
39858;SDS011;25528;47.810;12.960;2022-08-19T02:58:45;9.88;;;9.07;;
39858;SDS011;25528;47.810;12.960;2022-08-19T03:01:18;10.80;;;10.00;;
39858;SDS011;25528;47.810;12.960;2022-08-19T03:03:46;10.95;;;10.05;;
39858;SDS011;25528;47.810;12.960;2022-08-19T03:06:12;11.05;;;10.15;;
39858;SDS011;25528;47.810;12.960;2022-08-19T03:08:43;10.20;;;9.40;;
39858;SDS011;25528;47.810;12.960;2022-08-19T03:11:18;11.18;;;10.27;;
39858;SDS011;25528;47.810;12.960;2022-08-19T03:13:46;10.80;;;9.90;;
39858;SDS011;25528;47.810;12.960;2022-08-19T03:16:15;10.05;;;9.15;;
39858;SDS011;25528;47.810;12.960;2022-08-19T03:18:41;11.20;;;10.20;;
39858;SDS011;25528;47.810;12.960;2022-08-19T03:21:08;10.65;;;9.15;;
39858;SDS011;25528;47.810;12.960;2022-08-19T03:23:34;12.65;;;8.98;;
39858;SDS011;25528;47.810;12.960;2022-08-19T03:26:02;13.30;;;9.70;;
39858;SDS011;25528;47.810;12.960;2022-08-19T03:28:29;11.00;;;9.63;;
39858;SDS011;25528;47.810;12.960;2022-08-19T03:31:00;14.60;;;10.57;;
39858;SDS011;25528;47.810;12.960;2022-08-19T03:33:28;10.80;;;9.45;;
39858;SDS011;25528;47.810;12.960;2022-08-19T03:38:32;11.95;;;10.15;;
39858;SDS011;25528;47.810;12.960;2022-08-19T03:41:02;10.48;;;9.57;;
39858;SDS011;25528;47.810;12.960;2022-08-19T03:43:31;10.57;;;9.48;;
39858;SDS011;25528;47.810;12.960;2022-08-19T03:46:05;10.57;;;9.13;;
39858;SDS011;25528;47.810;12.960;2022-08-19T03:48:33;16.75;;;8.95;;
39858;SDS011;25528;47.810;12.960;2022-08-19T03:51:00;14.88;;;8.85;;
39858;SDS011;25528;47.810;12.960;2022-08-19T03:53:26;15.65;;;9.70;;
39858;SDS011;25528;47.810;12.960;2022-08-19T03:55:53;10.85;;;8.75;;
39858;SDS011;25528;47.810;12.960;2022-08-19T03:58:20;11.00;;;8.75;;
39858;SDS011;25528;47.810;12.960;2022-08-19T04:00:46;11.93;;;8.48;;
39858;SDS011;25528;47.810;12.960;2022-08-19T04:03:12;12.77;;;11.57;;
39858;SDS011;25528;47.810;12.960;2022-08-19T04:05:37;11.73;;;9.87;;
39858;SDS011;25528;47.810;12.960;2022-08-19T04:08:04;12.93;;;11.38;;
39858;SDS011;25528;47.810;12.960;2022-08-19T04:10:31;13.55;;;10.82;;
39858;SDS011;25528;47.810;12.960;2022-08-19T04:13:01;12.60;;;11.27;;
39858;SDS011;25528;47.810;12.960;2022-08-19T04:15:29;13.33;;;12.00;;
39858;SDS011;25528;47.810;12.960;2022-08-19T04:17:56;12.60;;;11.35;;
39858;SDS011;25528;47.810;12.960;2022-08-19T04:20:21;13.50;;;12.20;;
39858;SDS011;25528;47.810;12.960;2022-08-19T04:22:47;13.88;;;12.35;;
39858;SDS011;25528;47.810;12.960;2022-08-19T04:25:13;13.13;;;11.73;;
39858;SDS011;25528;47.810;12.960;2022-08-19T04:27:38;13.30;;;12.10;;
39858;SDS011;25528;47.810;12.960;2022-08-19T04:30:04;16.10;;;13.18;;
39858;SDS011;25528;47.810;12.960;2022-08-19T04:32:30;17.05;;;13.05;;
39858;SDS011;25528;47.810;12.960;2022-08-19T04:34:56;14.82;;;12.48;;
39858;SDS011;25528;47.810;12.960;2022-08-19T04:37:23;14.83;;;12.17;;
39858;SDS011;25528;47.810;12.960;2022-08-19T04:39:51;15.27;;;11.85;;
39858;SDS011;25528;47.810;12.960;2022-08-19T04:42:35;14.10;;;12.52;;
39858;SDS011;25528;47.810;12.960;2022-08-19T04:45:07;13.68;;;12.18;;
39858;SDS011;25528;47.810;12.960;2022-08-19T04:47:44;17.30;;;12.20;;
39858;SDS011;25528;47.810;12.960;2022-08-19T04:50:10;19.10;;;13.63;;
39858;SDS011;25528;47.810;12.960;2022-08-19T04:52:36;16.80;;;13.13;;
39858;SDS011;25528;47.810;12.960;2022-08-19T04:55:09;19.08;;;14.25;;
39858;SDS011;25528;47.810;12.960;2022-08-19T04:57:39;17.98;;;14.65;;
39858;SDS011;25528;47.810;12.960;2022-08-19T05:00:08;17.05;;;14.05;;
39858;SDS011;25528;47.810;12.960;2022-08-19T05:02:35;17.27;;;14.70;;
39858;SDS011;25528;47.810;12.960;2022-08-19T05:05:00;17.33;;;13.30;;
39858;SDS011;25528;47.810;12.960;2022-08-19T05:07:26;17.37;;;13.50;;
39858;SDS011;25528;47.810;12.960;2022-08-19T05:09:52;16.13;;;13.75;;
39858;SDS011;25528;47.810;12.960;2022-08-19T05:12:18;15.17;;;12.80;;
39858;SDS011;25528;47.810;12.960;2022-08-19T05:14:44;16.55;;;13.20;;
39858;SDS011;25528;47.810;12.960;2022-08-19T05:17:12;14.40;;;12.90;;
39858;SDS011;25528;47.810;12.960;2022-08-19T05:19:38;14.82;;;13.32;;
39858;SDS011;25528;47.810;12.960;2022-08-19T05:22:22;17.02;;;13.55;;
39858;SDS011;25528;47.810;12.960;2022-08-19T05:24:58;18.77;;;14.85;;
39858;SDS011;25528;47.810;12.960;2022-08-19T05:27:23;16.60;;;14.90;;
39858;SDS011;25528;47.810;12.960;2022-08-19T05:29:49;16.67;;;14.77;;
39858;SDS011;25528;47.810;12.960;2022-08-19T05:32:15;15.90;;;14.40;;
39858;SDS011;25528;47.810;12.960;2022-08-19T05:34:41;15.27;;;13.77;;
39858;SDS011;25528;47.810;12.960;2022-08-19T05:37:07;15.07;;;13.47;;
39858;SDS011;25528;47.810;12.960;2022-08-19T05:39:34;15.60;;;14.02;;
39858;SDS011;25528;47.810;12.960;2022-08-19T05:42:03;17.00;;;15.40;;
39858;SDS011;25528;47.810;12.960;2022-08-19T05:44:34;15.80;;;14.30;;
39858;SDS011;25528;47.810;12.960;2022-08-19T05:47:05;15.90;;;14.40;;
39858;SDS011;25528;47.810;12.960;2022-08-19T05:49:35;16.90;;;15.35;;
39858;SDS011;25528;47.810;12.960;2022-08-19T05:52:03;16.55;;;15.15;;
39858;SDS011;25528;47.810;12.960;2022-08-19T05:54:30;16.00;;;14.32;;
39858;SDS011;25528;47.810;12.960;2022-08-19T05:56:56;16.20;;;13.40;;
39858;SDS011;25528;47.810;12.960;2022-08-19T05:59:22;15.35;;;13.73;;
39858;SDS011;25528;47.810;12.960;2022-08-19T06:01:48;15.23;;;13.68;;
39858;SDS011;25528;47.810;12.960;2022-08-19T06:04:16;15.13;;;13.13;;
39858;SDS011;25528;47.810;12.960;2022-08-19T06:06:44;15.68;;;13.98;;
39858;SDS011;25528;47.810;12.960;2022-08-19T06:09:11;15.88;;;14.18;;
39858;SDS011;25528;47.810;12.960;2022-08-19T06:11:38;15.85;;;14.15;;
39858;SDS011;25528;47.810;12.960;2022-08-19T06:14:07;16.10;;;13.82;;
39858;SDS011;25528;47.810;12.960;2022-08-19T06:16:36;16.13;;;14.52;;
39858;SDS011;25528;47.810;12.960;2022-08-19T06:19:04;16.67;;;15.02;;
39858;SDS011;25528;47.810;12.960;2022-08-19T06:21:34;15.50;;;13.88;;
39858;SDS011;25528;47.810;12.960;2022-08-19T06:24:06;15.30;;;13.38;;
39858;SDS011;25528;47.810;12.960;2022-08-19T06:26:34;17.70;;;14.85;;
39858;SDS011;25528;47.810;12.960;2022-08-19T06:29:01;16.40;;;14.80;;
39858;SDS011;25528;47.810;12.960;2022-08-19T06:31:29;15.98;;;14.35;;
39858;SDS011;25528;47.810;12.960;2022-08-19T06:33:58;17.02;;;15.23;;
39858;SDS011;25528;47.810;12.960;2022-08-19T06:36:28;16.35;;;14.65;;
39858;SDS011;25528;47.810;12.960;2022-08-19T06:38:59;16.40;;;14.68;;
39858;SDS011;25528;47.810;12.960;2022-08-19T06:41:27;17.00;;;15.20;;
39858;SDS011;25528;47.810;12.960;2022-08-19T06:43:54;16.02;;;14.32;;
39858;SDS011;25528;47.810;12.960;2022-08-19T06:46:20;17.20;;;15.32;;
39858;SDS011;25528;47.810;12.960;2022-08-19T06:48:46;16.55;;;14.80;;
39858;SDS011;25528;47.810;12.960;2022-08-19T06:51:14;17.08;;;15.05;;
39858;SDS011;25528;47.810;12.960;2022-08-19T06:53:43;16.63;;;14.88;;
39858;SDS011;25528;47.810;12.960;2022-08-19T06:56:20;17.00;;;15.38;;
39858;SDS011;25528;47.810;12.960;2022-08-19T06:58:48;16.70;;;15.20;;
39858;SDS011;25528;47.810;12.960;2022-08-19T07:01:18;17.30;;;15.57;;
39858;SDS011;25528;47.810;12.960;2022-08-19T07:03:45;17.77;;;16.08;;
39858;SDS011;25528;47.810;12.960;2022-08-19T07:06:12;17.77;;;16.05;;
39858;SDS011;25528;47.810;12.960;2022-08-19T07:08:42;17.17;;;15.50;;
39858;SDS011;25528;47.810;12.960;2022-08-19T07:11:11;15.85;;;14.35;;
39858;SDS011;25528;47.810;12.960;2022-08-19T07:13:39;17.02;;;15.25;;
39858;SDS011;25528;47.810;12.960;2022-08-19T07:16:08;18.70;;;15.70;;
39858;SDS011;25528;47.810;12.960;2022-08-19T07:18:36;16.30;;;14.70;;
39858;SDS011;25528;47.810;12.960;2022-08-19T07:21:10;17.80;;;15.93;;
39858;SDS011;25528;47.810;12.960;2022-08-19T07:23:38;17.83;;;16.13;;
39858;SDS011;25528;47.810;12.960;2022-08-19T07:26:12;18.00;;;16.00;;
39858;SDS011;25528;47.810;12.960;2022-08-19T07:28:41;17.40;;;15.57;;
39858;SDS011;25528;47.810;12.960;2022-08-19T07:31:10;17.20;;;15.50;;
39858;SDS011;25528;47.810;12.960;2022-08-19T07:33:37;19.33;;;17.25;;
39858;SDS011;25528;47.810;12.960;2022-08-19T07:36:07;17.50;;;15.70;;
39858;SDS011;25528;47.810;12.960;2022-08-19T07:38:36;18.40;;;15.38;;
39858;SDS011;25528;47.810;12.960;2022-08-19T07:41:04;17.77;;;15.98;;
39858;SDS011;25528;47.810;12.960;2022-08-19T07:43:31;16.85;;;15.25;;
39858;SDS011;25528;47.810;12.960;2022-08-19T07:45:58;18.23;;;16.33;;
39858;SDS011;25528;47.810;12.960;2022-08-19T07:48:24;17.90;;;16.15;;
39858;SDS011;25528;47.810;12.960;2022-08-19T07:50:52;17.73;;;16.02;;
39858;SDS011;25528;47.810;12.960;2022-08-19T07:53:27;19.13;;;17.20;;
39858;SDS011;25528;47.810;12.960;2022-08-19T07:55:55;17.70;;;16.02;;
39858;SDS011;25528;47.810;12.960;2022-08-19T07:58:28;16.98;;;15.27;;
39858;SDS011;25528;47.810;12.960;2022-08-19T08:00:55;14.32;;;13.13;;
39858;SDS011;25528;47.810;12.960;2022-08-19T08:03:22;14.63;;;13.23;;
39858;SDS011;25528;47.810;12.960;2022-08-19T08:06:08;14.15;;;13.02;;
39858;SDS011;25528;47.810;12.960;2022-08-19T08:08:53;13.73;;;12.55;;
39858;SDS011;25528;47.810;12.960;2022-08-19T08:11:47;13.30;;;11.93;;
39858;SDS011;25528;47.810;12.960;2022-08-19T08:14:33;13.27;;;12.10;;
39858;SDS011;25528;47.810;12.960;2022-08-19T08:17:02;12.25;;;11.15;;
39858;SDS011;25528;47.810;12.960;2022-08-19T08:19:30;12.70;;;11.60;;
39858;SDS011;25528;47.810;12.960;2022-08-19T08:21:58;11.93;;;11.05;;
39858;SDS011;25528;47.810;12.960;2022-08-19T08:24:26;11.52;;;10.57;;
39858;SDS011;25528;47.810;12.960;2022-08-19T08:26:56;12.32;;;11.43;;
39858;SDS011;25528;47.810;12.960;2022-08-19T08:29:27;11.52;;;10.63;;
39858;SDS011;25528;47.810;12.960;2022-08-19T08:31:55;10.77;;;9.98;;
39858;SDS011;25528;47.810;12.960;2022-08-19T08:34:22;9.97;;;9.17;;
39858;SDS011;25528;47.810;12.960;2022-08-19T08:36:49;10.65;;;9.82;;
39858;SDS011;25528;47.810;12.960;2022-08-19T08:39:18;10.18;;;9.43;;
39858;SDS011;25528;47.810;12.960;2022-08-19T08:44:57;10.90;;;10.05;;
39858;SDS011;25528;47.810;12.960;2022-08-19T08:47:26;10.63;;;9.82;;
39858;SDS011;25528;47.810;12.960;2022-08-19T08:52:37;10.40;;;9.40;;
39858;SDS011;25528;47.810;12.960;2022-08-19T08:55:12;9.40;;;8.60;;
39858;SDS011;25528;47.810;12.960;2022-08-19T09:00:18;9.90;;;9.10;;
39858;SDS011;25528;47.810;12.960;2022-08-19T09:02:47;9.23;;;8.43;;
39858;SDS011;25528;47.810;12.960;2022-08-19T09:05:13;9.52;;;8.70;;
39858;SDS011;25528;47.810;12.960;2022-08-19T09:07:46;10.20;;;9.27;;
39858;SDS011;25528;47.810;12.960;2022-08-19T09:10:33;10.13;;;9.32;;
39858;SDS011;25528;47.810;12.960;2022-08-19T09:15:40;10.83;;;10.03;;
39858;SDS011;25528;47.810;12.960;2022-08-19T09:18:10;12.27;;;11.30;;
39858;SDS011;25528;47.810;12.960;2022-08-19T09:20:36;12.30;;;11.30;;
39858;SDS011;25528;47.810;12.960;2022-08-19T09:23:02;13.10;;;12.00;;
39858;SDS011;25528;47.810;12.960;2022-08-19T09:25:29;11.82;;;10.77;;
39858;SDS011;25528;47.810;12.960;2022-08-19T09:27:57;12.13;;;11.18;;
39858;SDS011;25528;47.810;12.960;2022-08-19T09:30:28;11.75;;;10.85;;
39858;SDS011;25528;47.810;12.960;2022-08-19T09:32:56;10.98;;;10.07;;
39858;SDS011;25528;47.810;12.960;2022-08-19T09:35:23;10.45;;;9.55;;
39858;SDS011;25528;47.810;12.960;2022-08-19T09:37:51;11.40;;;10.60;;
39858;SDS011;25528;47.810;12.960;2022-08-19T09:40:17;10.30;;;9.50;;
39858;SDS011;25528;47.810;12.960;2022-08-19T09:42:44;10.77;;;9.98;;
39858;SDS011;25528;47.810;12.960;2022-08-19T09:45:14;10.00;;;9.30;;
39858;SDS011;25528;47.810;12.960;2022-08-19T09:47:41;11.23;;;10.23;;
39858;SDS011;25528;47.810;12.960;2022-08-19T09:50:08;10.43;;;9.50;;
39858;SDS011;25528;47.810;12.960;2022-08-19T09:52:36;10.27;;;9.48;;
39858;SDS011;25528;47.810;12.960;2022-08-19T09:55:06;10.63;;;9.73;;
39858;SDS011;25528;47.810;12.960;2022-08-19T09:57:33;10.20;;;9.40;;
39858;SDS011;25528;47.810;12.960;2022-08-19T09:59:59;10.70;;;9.70;;
39858;SDS011;25528;47.810;12.960;2022-08-19T10:02:26;11.52;;;10.45;;
39858;SDS011;25528;47.810;12.960;2022-08-19T10:04:51;10.27;;;9.47;;
39858;SDS011;25528;47.810;12.960;2022-08-19T10:07:36;10.75;;;9.85;;
39858;SDS011;25528;47.810;12.960;2022-08-19T10:10:05;9.75;;;8.95;;
39858;SDS011;25528;47.810;12.960;2022-08-19T10:12:32;10.93;;;9.82;;
39858;SDS011;25528;47.810;12.960;2022-08-19T10:14:59;11.20;;;10.30;;
39858;SDS011;25528;47.810;12.960;2022-08-19T10:17:25;13.23;;;12.02;;
39858;SDS011;25528;47.810;12.960;2022-08-19T10:19:52;13.48;;;12.52;;
39858;SDS011;25528;47.810;12.960;2022-08-19T10:22:18;12.23;;;11.00;;
39858;SDS011;25528;47.810;12.960;2022-08-19T10:24:47;13.10;;;12.10;;
39858;SDS011;25528;47.810;12.960;2022-08-19T10:27:14;13.17;;;12.07;;
39858;SDS011;25528;47.810;12.960;2022-08-19T10:29:40;12.15;;;11.10;;
39858;SDS011;25528;47.810;12.960;2022-08-19T10:32:07;12.85;;;11.73;;
39858;SDS011;25528;47.810;12.960;2022-08-19T10:34:34;13.60;;;12.40;;
39858;SDS011;25528;47.810;12.960;2022-08-19T10:37:04;12.63;;;11.40;;
39858;SDS011;25528;47.810;12.960;2022-08-19T10:39:31;14.90;;;10.90;;
39858;SDS011;25528;47.810;12.960;2022-08-19T10:42:03;13.43;;;12.18;;
39858;SDS011;25528;47.810;12.960;2022-08-19T10:44:31;13.25;;;12.23;;
39858;SDS011;25528;47.810;12.960;2022-08-19T10:46:57;12.88;;;11.68;;
39858;SDS011;25528;47.810;12.960;2022-08-19T10:49:23;12.17;;;11.10;;
39858;SDS011;25528;47.810;12.960;2022-08-19T10:51:49;12.27;;;11.07;;
39858;SDS011;25528;47.810;12.960;2022-08-19T10:54:33;11.27;;;10.18;;
39858;SDS011;25528;47.810;12.960;2022-08-19T10:57:18;11.77;;;10.57;;
39858;SDS011;25528;47.810;12.960;2022-08-19T10:59:43;11.47;;;10.47;;
39858;SDS011;25528;47.810;12.960;2022-08-19T11:02:10;12.00;;;10.80;;
39858;SDS011;25528;47.810;12.960;2022-08-19T11:04:37;12.30;;;10.93;;
39858;SDS011;25528;47.810;12.960;2022-08-19T11:07:04;11.40;;;10.48;;
39858;SDS011;25528;47.810;12.960;2022-08-19T11:09:36;10.75;;;9.85;;
39858;SDS011;25528;47.810;12.960;2022-08-19T11:12:06;11.68;;;10.57;;
39858;SDS011;25528;47.810;12.960;2022-08-19T11:14:33;10.65;;;9.80;;
39858;SDS011;25528;47.810;12.960;2022-08-19T11:17:00;11.07;;;10.13;;
39858;SDS011;25528;47.810;12.960;2022-08-19T11:19:26;11.02;;;9.93;;
39858;SDS011;25528;47.810;12.960;2022-08-19T11:21:52;11.77;;;10.55;;
39858;SDS011;25528;47.810;12.960;2022-08-19T11:24:23;11.20;;;10.32;;
39858;SDS011;25528;47.810;12.960;2022-08-19T11:26:50;11.07;;;9.97;;
39858;SDS011;25528;47.810;12.960;2022-08-19T11:29:18;12.20;;;11.02;;
39858;SDS011;25528;47.810;12.960;2022-08-19T11:31:47;10.75;;;9.63;;
39858;SDS011;25528;47.810;12.960;2022-08-19T11:34:19;11.20;;;10.30;;
39858;SDS011;25528;47.810;12.960;2022-08-19T11:36:50;10.98;;;10.05;;
39858;SDS011;25528;47.810;12.960;2022-08-19T11:39:17;9.63;;;8.82;;
39858;SDS011;25528;47.810;12.960;2022-08-19T11:41:45;10.63;;;9.82;;
39858;SDS011;25528;47.810;12.960;2022-08-19T11:44:11;12.38;;;9.57;;
39858;SDS011;25528;47.810;12.960;2022-08-19T11:46:38;10.30;;;9.40;;
39858;SDS011;25528;47.810;12.960;2022-08-19T11:49:05;11.02;;;10.05;;
39858;SDS011;25528;47.810;12.960;2022-08-19T11:51:32;10.30;;;9.45;;
39858;SDS011;25528;47.810;12.960;2022-08-19T11:53:59;10.30;;;9.40;;
39858;SDS011;25528;47.810;12.960;2022-08-19T11:56:25;10.98;;;10.18;;
39858;SDS011;25528;47.810;12.960;2022-08-19T11:58:52;10.90;;;10.00;;
39858;SDS011;25528;47.810;12.960;2022-08-19T12:01:20;11.00;;;10.00;;
39858;SDS011;25528;47.810;12.960;2022-08-19T12:03:47;9.20;;;8.48;;
39858;SDS011;25528;47.810;12.960;2022-08-19T12:06:17;9.80;;;9.00;;
39858;SDS011;25528;47.810;12.960;2022-08-19T12:08:54;12.13;;;9.18;;
39858;SDS011;25528;47.810;12.960;2022-08-19T12:11:21;8.82;;;7.85;;
39858;SDS011;25528;47.810;12.960;2022-08-19T12:13:48;11.25;;;8.82;;
39858;SDS011;25528;47.810;12.960;2022-08-19T12:16:16;9.30;;;8.50;;
39858;SDS011;25528;47.810;12.960;2022-08-19T12:18:44;9.90;;;9.05;;
39858;SDS011;25528;47.810;12.960;2022-08-19T12:21:11;9.32;;;8.45;;
39858;SDS011;25528;47.810;12.960;2022-08-19T12:23:41;11.07;;;9.98;;
39858;SDS011;25528;47.810;12.960;2022-08-19T12:26:09;9.60;;;8.60;;
39858;SDS011;25528;47.810;12.960;2022-08-19T12:28:35;10.50;;;9.03;;
39858;SDS011;25528;47.810;12.960;2022-08-19T12:31:02;9.80;;;8.90;;
39858;SDS011;25528;47.810;12.960;2022-08-19T12:33:27;10.50;;;8.98;;
39858;SDS011;25528;47.810;12.960;2022-08-19T12:35:53;10.70;;;9.73;;
39858;SDS011;25528;47.810;12.960;2022-08-19T12:38:24;9.80;;;8.95;;
39858;SDS011;25528;47.810;12.960;2022-08-19T12:40:50;10.40;;;9.30;;
39858;SDS011;25528;47.810;12.960;2022-08-19T12:43:17;12.57;;;11.27;;
39858;SDS011;25528;47.810;12.960;2022-08-19T12:45:44;11.45;;;10.30;;
39858;SDS011;25528;47.810;12.960;2022-08-19T12:48:10;10.88;;;9.75;;
39858;SDS011;25528;47.810;12.960;2022-08-19T12:50:40;12.07;;;10.70;;
39858;SDS011;25528;47.810;12.960;2022-08-19T12:53:06;11.88;;;10.63;;
39858;SDS011;25528;47.810;12.960;2022-08-19T12:55:32;11.48;;;9.82;;
39858;SDS011;25528;47.810;12.960;2022-08-19T12:57:58;10.00;;;8.93;;
39858;SDS011;25528;47.810;12.960;2022-08-19T13:00:26;9.77;;;8.85;;
39858;SDS011;25528;47.810;12.960;2022-08-19T13:02:52;13.00;;;10.93;;
39858;SDS011;25528;47.810;12.960;2022-08-19T13:05:20;11.93;;;10.18;;
39858;SDS011;25528;47.810;12.960;2022-08-19T13:07:52;13.40;;;10.60;;
39858;SDS011;25528;47.810;12.960;2022-08-19T13:10:21;13.88;;;11.57;;
39858;SDS011;25528;47.810;12.960;2022-08-19T13:12:49;13.80;;;10.98;;
39858;SDS011;25528;47.810;12.960;2022-08-19T13:15:17;11.60;;;10.25;;
39858;SDS011;25528;47.810;12.960;2022-08-19T13:17:47;10.80;;;9.88;;
39858;SDS011;25528;47.810;12.960;2022-08-19T13:20:14;13.15;;;10.40;;
39858;SDS011;25528;47.810;12.960;2022-08-19T13:22:41;12.95;;;9.45;;
39858;SDS011;25528;47.810;12.960;2022-08-19T13:25:07;10.20;;;9.10;;
39858;SDS011;25528;47.810;12.960;2022-08-19T13:27:34;11.85;;;10.85;;
39858;SDS011;25528;47.810;12.960;2022-08-19T13:30:01;12.18;;;10.88;;
39858;SDS011;25528;47.810;12.960;2022-08-19T13:32:47;10.48;;;9.52;;
39858;SDS011;25528;47.810;12.960;2022-08-19T13:35:31;10.98;;;9.82;;
39858;SDS011;25528;47.810;12.960;2022-08-19T13:37:57;11.37;;;10.07;;
39858;SDS011;25528;47.810;12.960;2022-08-19T13:40:23;10.23;;;9.23;;
39858;SDS011;25528;47.810;12.960;2022-08-19T13:42:51;9.83;;;9.03;;
39858;SDS011;25528;47.810;12.960;2022-08-19T13:45:20;10.10;;;9.10;;
39858;SDS011;25528;47.810;12.960;2022-08-19T13:47:50;10.13;;;9.32;;
39858;SDS011;25528;47.810;12.960;2022-08-19T13:50:20;10.20;;;8.90;;
39858;SDS011;25528;47.810;12.960;2022-08-19T13:52:49;9.60;;;8.70;;
39858;SDS011;25528;47.810;12.960;2022-08-19T13:55:14;9.60;;;8.80;;
39858;SDS011;25528;47.810;12.960;2022-08-19T13:57:41;9.48;;;8.63;;
39858;SDS011;25528;47.810;12.960;2022-08-19T14:00:08;9.17;;;8.37;;
39858;SDS011;25528;47.810;12.960;2022-08-19T14:02:36;9.40;;;8.70;;
39858;SDS011;25528;47.810;12.960;2022-08-19T14:05:04;9.75;;;8.98;;
39858;SDS011;25528;47.810;12.960;2022-08-19T14:07:31;10.35;;;9.45;;
39858;SDS011;25528;47.810;12.960;2022-08-19T14:09:57;10.40;;;9.50;;
39858;SDS011;25528;47.810;12.960;2022-08-19T14:12:22;9.80;;;8.90;;
39858;SDS011;25528;47.810;12.960;2022-08-19T14:14:48;9.90;;;9.20;;
39858;SDS011;25528;47.810;12.960;2022-08-19T14:17:14;9.65;;;8.95;;
39858;SDS011;25528;47.810;12.960;2022-08-19T14:19:41;9.27;;;8.57;;
39858;SDS011;25528;47.810;12.960;2022-08-19T14:22:07;9.82;;;9.13;;
39858;SDS011;25528;47.810;12.960;2022-08-19T14:24:33;10.25;;;9.52;;
39858;SDS011;25528;47.810;12.960;2022-08-19T14:26:59;9.75;;;9.05;;
39858;SDS011;25528;47.810;12.960;2022-08-19T14:29:25;10.87;;;10.07;;
39858;SDS011;25528;47.810;12.960;2022-08-19T14:31:53;11.23;;;10.53;;
39858;SDS011;25528;47.810;12.960;2022-08-19T14:34:21;10.17;;;9.47;;
39858;SDS011;25528;47.810;12.960;2022-08-19T14:36:47;10.57;;;9.80;;